Spokane, WA

10:36 AM PST on December 06, 2016 (GMT -0800)
kendall yards | | Change Station

Elev 1850 ft 47.66 °N, 117.44 °W | Updated 22 seconds ago

Clear
Clear
30.2 °F
Feels Like 24 °F
N
6.3
Wind Variable Wind from North

Today
High -- | Low -- °F
--% Chance of Precip.
Yesterday
High -- | Low -- °F
Precip. -- in
Pressure 30.08 in
Visibility 10.0 miles
Clouds Clear
Windchill 24 °F
Dew Point 16 °F
Humidity 55%
Rainfall 0.00 in
Snow Depth Not available.
7:23 AM 3:58 PM
Waxing Crescent, 44% visible
METAR KSFF 061753Z VRB03KT 10SM CLR M02/M09 A3003 RMK AO2 SLP186 6//// T10221094 11022 21044 53013 PNO $
Pressure 30.08 in
Visibility 10.0 miles
Clouds Clear
Windchill 24 °F
Dew Point 16 °F
Humidity 55%
Rainfall 0.00 in
Snow Depth Not available.
7:23 AM 3:58 PM
Waxing Crescent, 44% visible
METAR KSFF 061753Z VRB03KT 10SM CLR M02/M09 A3003 RMK AO2 SLP186 6//// T10221094 11022 21044 53013 PNO $

10-Day Weather Forecast

Almanac

Astronomy

Dec. 06, 2016 Rise Set
Actual Time
Civil Twilight
Nautical Twilight
Astronomical Twilight
Moon
Length of Visible Light
Length of Day
Tomorrow will be .
, % of the Moon is Illuminated

Today's Extremes

State Highs State Lows

Community

WunderPhotos

Upload Photos

1,955,999 photos uploaded!

WunderBlog® & News

Nearby

Air Quality

  Air Quality AQ Index Pollutant
Not available.

Snow Depth

Station Depth Elevation

Earthquake Activity

City Distance Mag. Time & Date
Minimum magnitude displayed is 2.5.

Coastal Water Temperatures

Place Temperature

Stations

Nearby Weather Stations

Station Location Temp. Windchill Dew Point Humidity Wind Precip. Elev Updated Type
                   

Watches & Warnings

There are currently no watches in effect.